Portada
METAR-TAF:

METAR-TAF

Aeroports :

Nuuk, Grenlàndia

latitud: 64-10N, longitud: 051-45W, altitud: 80 m

Observació

L'informe es va fer fa 1 hora i 9 minuts, a les 01:50 UTC
Vent 26 kt del Sud/Sud-Est
Temperatura 6°C
Humitat 81%
Pressió 1009 hPa
Visibilitat: 2800 m
neu, boirina

METAR: BGGH 270150Z AUTO 16026KT 2800NDV -SN BR OVC025/// 06/03 Q1009

Hora: 00:59 (02:59 UTC)

Pronòstic

L'informe es va fer fa 11 hores i 55 minuts, a les 15:04 UTC
Pronòstic vàlid del 26 a les 15 UTC al 26 a les 21 UTC
Vent 20 kt del Sud
Visibilitat 10 km o més
Núvols disperses a una alçada de 800 ft
Cel ennuvolat a una alçada de 2500 ft
pluja
Temporalment
l' 26 a les 15 UTC al 26 a les 21 UTC
Vent 25 kt del Sud/Sud-Est amb ràfegues de 40 kt
Visibilitat: 4000 m
Cel ennuvolat a una alçada de 800 ft
pluja

TAF: BGGH 261504Z 2615/2621 17020KT 9999 -RA SCT008 BKN025 TEMPO 2615/2621 16025G40KT 4000 RA BKN008

Observacions i pronòstics meteorològics de més de 4000 aeroports (METAR i TAF).

Les estacions disponibles són els punts grocs i vermells al mapa.

Posi el ratolí al punt desitjat per veure el nom de l'estació.

Feu clic per veure les observacions i els pronòstics meteorològics.

Per canviar el mapa: feu clic els botons verds amb una creu de color negre per apropar; al botó verd amb un guió per allunyar la imatge; o en les fletxes verdes per a mapes adjacents.


METAR-TAF: